ESGG

Gothenburg-Landvetter Airport

Gothenburg, Sweden
METAR ESGG 181620Z 27003KT 230V300 CAVOK 08/04 Q1022
Observed Flight Rules
Oct-18 @ 16:20 UTC (18 minutes ago) Visual Flight Rules
Wind Visibility Clouds
270° at 3 knots 10,000+ meters
  • Clear skies
Temperatures Readings
Current 8°C / 46°F
Dewpoint 4°C / 39°F
Humidity 76%
Altimeter 30.18" Hg
Pressure 1022 hPa
Elevation 169
METAR ESGG 181620Z 27003KT 230V300 CAVOK 08/04 Q1022
Observed Flight Rules
Oct-18 @ 16:20 UTC
(18 minutes ago)
VFR
Wind Visibility
270° at 3 knots 10,000+ meters
Clouds
  • Clear skies
Temperature Dewpoint
8°C / 46°F 4°C / 39°F
Humidity Altimeter Pressure
76% 30.18" Hg 1022 hPa